EDLP/PAD METAR and TAF weather

Enter ICAO airport designator
Station Type Date Time Source
EDLP METAR 2021/07/24 19:20 UTC NOAA

EDLP 241920Z 26005KT 220V310 8000 -RA BR BKN006 OVC012 18/17 Q1009


Station Type Date Time Source
EDLP Decoded METAR 2021/07/24 19:20 UTC NOAA

Paderborn / Lippstadt, Germany (EDLP) 51-37N 008-37E
Jul 24, 2021 - 03:20 PM EDT / 2021.07.24 1920 UTC
Wind: from the W (260 degrees) at 6 MPH (5 KT) (direction variable):0
Visibility: 4 mile(s):0
Sky conditions: overcast
Weather: light rain; mist
Temperature: 64 F (18 C)
Dew Point: 62 F (17 C)
Relative Humidity: 93%
Pressure (altimeter): 29.80 in. Hg (1009 hPa)
ob: EDLP 241920Z 26005KT 220V310 8000 -RA BR BKN006 OVC012 18/17 Q1009
cycle: 19

Station Type Date Time Source
EDLP TAF 2021/07/24 18:58 UTC NOAA

TAF
AMD EDLP 241851Z 2418/2518 VRB03KT 4000 BR BKN005 PROB40
TEMPO 2418/2420 SHRA BKN030CB
BECMG 2419/2421 9999 FEW008 SCT030
BECMG 2420/2423 17006KT
BECMG 2507/2510 23006KT PROB40
TEMPO 2513/2518 23011KT TSRA BKN035CB

Example: see airport list